Terminal Aerodrome Forecast
Issued by NWS Jackson, KY

Home | Current Version | Previous Version | Text Only | Print | Product List | Glossary On
Versions: 1 2 3 4 5 6 7 8 9 10 11 12 13 14 15 16 17 18
559
FTUS43 KJKL 181307 AAA
TAFLOZ
TAF AMD
KLOZ 181307Z 1813/1912 29008KT P6SM VCSH OVC011
     FM181700 29007KT P6SM BKN020
     FM182000 29005KT P6SM BKN045=

USA.gov is the U.S. government's official web portal to all federal, state and local government web resources and services.